Terminal Aerodrome Forecast
Issued by NWS Bismarck, ND

Home | Current Version | Previous Version | Text Only | Print | Product List | Glossary Off
Versions: 1 2 3 4 5 6 7 8 9 10 11 12 13 14 15 16 17 18 19 20 21 22 23 24 25 26

000
FTUS43 KBIS 282300
TAFISN
TAF
KISN 282337Z 2900/2924 28008KT P6SM OVC030
     FM290200 00000KT P6SM FEW200
     FM291100 15005KT P6SM BKN110
     FM291800 23007KT P6SM SCT080
     FM292300 29007KT P6SM SCT250=

USA.gov is the U.S. government's official web portal to all federal, state and local government web resources and services.